sensor_id;sensor_type;location;lat;lon;timestamp;temperature;humidity
16829;DHT22;8531;48.078;11.968;2023-05-07T00:02:24;14.10;99.90
16829;DHT22;8531;48.078;11.968;2023-05-07T00:04:51;14.10;99.90
16829;DHT22;8531;48.078;11.968;2023-05-07T00:07:17;14.10;99.90
16829;DHT22;8531;48.078;11.968;2023-05-07T00:09:43;14.10;99.90
16829;DHT22;8531;48.078;11.968;2023-05-07T00:12:09;14.10;99.90
16829;DHT22;8531;48.078;11.968;2023-05-07T00:14:34;14.00;99.90
16829;DHT22;8531;48.078;11.968;2023-05-07T00:17:00;14.00;99.90
16829;DHT22;8531;48.078;11.968;2023-05-07T00:19:26;13.90;99.90
16829;DHT22;8531;48.078;11.968;2023-05-07T00:21:51;13.90;99.90
16829;DHT22;8531;48.078;11.968;2023-05-07T00:24:19;13.80;99.90
16829;DHT22;8531;48.078;11.968;2023-05-07T00:26:45;13.90;99.90
16829;DHT22;8531;48.078;11.968;2023-05-07T00:29:11;13.90;99.90
16829;DHT22;8531;48.078;11.968;2023-05-07T00:31:36;13.90;99.90
16829;DHT22;8531;48.078;11.968;2023-05-07T00:34:02;13.80;99.90
16829;DHT22;8531;48.078;11.968;2023-05-07T00:36:28;13.70;99.90
16829;DHT22;8531;48.078;11.968;2023-05-07T00:38:54;13.70;99.90
16829;DHT22;8531;48.078;11.968;2023-05-07T00:41:20;13.70;99.90
16829;DHT22;8531;48.078;11.968;2023-05-07T00:43:46;13.70;99.90
16829;DHT22;8531;48.078;11.968;2023-05-07T00:46:13;13.70;99.90
16829;DHT22;8531;48.078;11.968;2023-05-07T00:48:40;13.70;99.90
16829;DHT22;8531;48.078;11.968;2023-05-07T00:51:06;13.70;99.90
16829;DHT22;8531;48.078;11.968;2023-05-07T00:53:32;13.60;99.90
16829;DHT22;8531;48.078;11.968;2023-05-07T00:55:58;13.60;99.90
16829;DHT22;8531;48.078;11.968;2023-05-07T00:58:24;13.60;99.90
16829;DHT22;8531;48.078;11.968;2023-05-07T01:00:50;13.60;99.90
16829;DHT22;8531;48.078;11.968;2023-05-07T01:03:16;13.60;99.90
16829;DHT22;8531;48.078;11.968;2023-05-07T01:05:42;13.60;99.90
16829;DHT22;8531;48.078;11.968;2023-05-07T01:08:08;13.70;99.90
16829;DHT22;8531;48.078;11.968;2023-05-07T01:10:36;13.60;99.90
16829;DHT22;8531;48.078;11.968;2023-05-07T01:13:01;13.60;99.90
16829;DHT22;8531;48.078;11.968;2023-05-07T01:15:27;13.60;99.90
16829;DHT22;8531;48.078;11.968;2023-05-07T01:17:53;13.60;99.90
16829;DHT22;8531;48.078;11.968;2023-05-07T01:20:19;13.50;99.90
16829;DHT22;8531;48.078;11.968;2023-05-07T01:22:45;13.60;99.90
16829;DHT22;8531;48.078;11.968;2023-05-07T01:25:11;13.70;99.90
16829;DHT22;8531;48.078;11.968;2023-05-07T01:27:37;13.70;99.90
16829;DHT22;8531;48.078;11.968;2023-05-07T01:30:06;13.70;99.90
16829;DHT22;8531;48.078;11.968;2023-05-07T01:35:09;13.60;99.90
16829;DHT22;8531;48.078;11.968;2023-05-07T01:37:35;13.60;99.90
16829;DHT22;8531;48.078;11.968;2023-05-07T01:40:02;13.70;99.90
16829;DHT22;8531;48.078;11.968;2023-05-07T01:42:29;13.70;99.90
16829;DHT22;8531;48.078;11.968;2023-05-07T01:44:55;13.70;99.90
16829;DHT22;8531;48.078;11.968;2023-05-07T01:47:21;13.70;99.90
16829;DHT22;8531;48.078;11.968;2023-05-07T01:49:47;13.60;99.90
16829;DHT22;8531;48.078;11.968;2023-05-07T01:52:13;13.30;99.90
16829;DHT22;8531;48.078;11.968;2023-05-07T01:54:38;13.30;99.90
16829;DHT22;8531;48.078;11.968;2023-05-07T01:57:04;13.30;99.90
16829;DHT22;8531;48.078;11.968;2023-05-07T01:59:30;13.40;99.90
16829;DHT22;8531;48.078;11.968;2023-05-07T02:01:56;13.40;99.90
16829;DHT22;8531;48.078;11.968;2023-05-07T02:04:21;13.50;99.90
16829;DHT22;8531;48.078;11.968;2023-05-07T02:06:47;13.40;99.90
16829;DHT22;8531;48.078;11.968;2023-05-07T02:09:13;13.40;99.90
16829;DHT22;8531;48.078;11.968;2023-05-07T02:11:40;13.40;99.90
16829;DHT22;8531;48.078;11.968;2023-05-07T02:14:06;13.20;99.90
16829;DHT22;8531;48.078;11.968;2023-05-07T02:16:31;13.20;99.90
16829;DHT22;8531;48.078;11.968;2023-05-07T02:18:57;13.20;99.90
16829;DHT22;8531;48.078;11.968;2023-05-07T02:21:24;13.10;99.90
16829;DHT22;8531;48.078;11.968;2023-05-07T02:23:50;13.10;99.90
16829;DHT22;8531;48.078;11.968;2023-05-07T02:26:16;13.20;99.90
16829;DHT22;8531;48.078;11.968;2023-05-07T02:28:41;13.30;99.90
16829;DHT22;8531;48.078;11.968;2023-05-07T02:31:07;13.30;99.90
16829;DHT22;8531;48.078;11.968;2023-05-07T02:33:33;13.30;99.90
16829;DHT22;8531;48.078;11.968;2023-05-07T02:36:10;13.40;99.90
16829;DHT22;8531;48.078;11.968;2023-05-07T02:38:36;13.40;99.90
16829;DHT22;8531;48.078;11.968;2023-05-07T02:41:01;13.40;99.90
16829;DHT22;8531;48.078;11.968;2023-05-07T02:43:27;13.30;99.90
16829;DHT22;8531;48.078;11.968;2023-05-07T02:46:06;13.40;99.90
16829;DHT22;8531;48.078;11.968;2023-05-07T02:48:33;13.40;99.90
16829;DHT22;8531;48.078;11.968;2023-05-07T02:50:59;13.30;99.90
16829;DHT22;8531;48.078;11.968;2023-05-07T02:53:25;13.30;99.90
16829;DHT22;8531;48.078;11.968;2023-05-07T02:55:55;13.20;99.90
16829;DHT22;8531;48.078;11.968;2023-05-07T02:58:21;13.20;99.90
16829;DHT22;8531;48.078;11.968;2023-05-07T03:00:47;13.20;99.90
16829;DHT22;8531;48.078;11.968;2023-05-07T03:03:12;13.10;99.90
16829;DHT22;8531;48.078;11.968;2023-05-07T03:05:38;13.10;99.90
16829;DHT22;8531;48.078;11.968;2023-05-07T03:08:04;13.20;99.90
16829;DHT22;8531;48.078;11.968;2023-05-07T03:10:30;13.20;99.90
16829;DHT22;8531;48.078;11.968;2023-05-07T03:12:56;13.20;99.90
16829;DHT22;8531;48.078;11.968;2023-05-07T03:15:21;13.20;99.90
16829;DHT22;8531;48.078;11.968;2023-05-07T03:17:48;13.10;99.90
16829;DHT22;8531;48.078;11.968;2023-05-07T03:20:13;13.10;99.90
16829;DHT22;8531;48.078;11.968;2023-05-07T03:22:39;13.20;99.90
16829;DHT22;8531;48.078;11.968;2023-05-07T03:25:06;13.10;99.90
16829;DHT22;8531;48.078;11.968;2023-05-07T03:27:32;13.00;99.90
16829;DHT22;8531;48.078;11.968;2023-05-07T03:29:57;13.00;99.90
16829;DHT22;8531;48.078;11.968;2023-05-07T03:32:23;13.00;99.90
16829;DHT22;8531;48.078;11.968;2023-05-07T03:34:49;13.00;99.90
16829;DHT22;8531;48.078;11.968;2023-05-07T03:37:14;13.10;99.90
16829;DHT22;8531;48.078;11.968;2023-05-07T03:39:40;13.00;99.90
16829;DHT22;8531;48.078;11.968;2023-05-07T03:42:06;13.00;99.90
16829;DHT22;8531;48.078;11.968;2023-05-07T03:44:32;12.90;99.90
16829;DHT22;8531;48.078;11.968;2023-05-07T03:46:58;12.80;99.90
16829;DHT22;8531;48.078;11.968;2023-05-07T03:49:23;12.80;99.90
16829;DHT22;8531;48.078;11.968;2023-05-07T03:51:49;12.80;99.90
16829;DHT22;8531;48.078;11.968;2023-05-07T03:54:15;12.80;99.90
16829;DHT22;8531;48.078;11.968;2023-05-07T03:56:40;12.80;99.90
16829;DHT22;8531;48.078;11.968;2023-05-07T03:59:06;12.90;99.90
16829;DHT22;8531;48.078;11.968;2023-05-07T04:01:31;12.90;99.90
16829;DHT22;8531;48.078;11.968;2023-05-07T04:03:57;12.80;99.90
16829;DHT22;8531;48.078;11.968;2023-05-07T04:06:23;12.80;99.90
16829;DHT22;8531;48.078;11.968;2023-05-07T04:08:49;12.80;99.90
16829;DHT22;8531;48.078;11.968;2023-05-07T04:11:15;12.80;99.90
16829;DHT22;8531;48.078;11.968;2023-05-07T04:13:40;12.80;99.90
16829;DHT22;8531;48.078;11.968;2023-05-07T04:16:06;12.80;99.90
16829;DHT22;8531;48.078;11.968;2023-05-07T04:18:32;12.80;99.90
16829;DHT22;8531;48.078;11.968;2023-05-07T04:20:57;12.80;99.90
16829;DHT22;8531;48.078;11.968;2023-05-07T04:23:23;12.90;99.90
16829;DHT22;8531;48.078;11.968;2023-05-07T04:25:49;12.90;99.90
16829;DHT22;8531;48.078;11.968;2023-05-07T04:28:15;12.90;99.90
16829;DHT22;8531;48.078;11.968;2023-05-07T04:30:41;12.80;99.90
16829;DHT22;8531;48.078;11.968;2023-05-07T04:33:07;12.80;99.90
16829;DHT22;8531;48.078;11.968;2023-05-07T04:35:33;12.80;99.90
16829;DHT22;8531;48.078;11.968;2023-05-07T04:37:58;12.80;99.90
16829;DHT22;8531;48.078;11.968;2023-05-07T04:40:24;12.80;99.90
16829;DHT22;8531;48.078;11.968;2023-05-07T04:42:50;12.90;99.90
16829;DHT22;8531;48.078;11.968;2023-05-07T04:45:16;12.90;99.90
16829;DHT22;8531;48.078;11.968;2023-05-07T04:47:42;12.90;99.90
16829;DHT22;8531;48.078;11.968;2023-05-07T04:50:08;12.90;99.90
16829;DHT22;8531;48.078;11.968;2023-05-07T04:52:34;12.90;99.90
16829;DHT22;8531;48.078;11.968;2023-05-07T04:55:00;13.00;99.90
16829;DHT22;8531;48.078;11.968;2023-05-07T04:57:26;13.00;99.90
16829;DHT22;8531;48.078;11.968;2023-05-07T04:59:53;13.00;99.90
16829;DHT22;8531;48.078;11.968;2023-05-07T05:02:18;13.00;99.90
16829;DHT22;8531;48.078;11.968;2023-05-07T05:04:44;13.10;99.90
16829;DHT22;8531;48.078;11.968;2023-05-07T05:07:10;13.10;99.90
16829;DHT22;8531;48.078;11.968;2023-05-07T05:09:36;13.10;99.90
16829;DHT22;8531;48.078;11.968;2023-05-07T05:12:02;13.10;99.90
16829;DHT22;8531;48.078;11.968;2023-05-07T05:14:28;13.10;99.90
16829;DHT22;8531;48.078;11.968;2023-05-07T05:16:53;13.10;99.90
16829;DHT22;8531;48.078;11.968;2023-05-07T05:19:19;13.10;99.90
16829;DHT22;8531;48.078;11.968;2023-05-07T05:21:45;13.10;99.90
16829;DHT22;8531;48.078;11.968;2023-05-07T05:24:10;13.10;99.90
16829;DHT22;8531;48.078;11.968;2023-05-07T05:26:36;13.00;99.90
16829;DHT22;8531;48.078;11.968;2023-05-07T05:29:02;13.00;99.90
16829;DHT22;8531;48.078;11.968;2023-05-07T05:31:27;13.00;99.90
16829;DHT22;8531;48.078;11.968;2023-05-07T05:33:53;12.90;99.90
16829;DHT22;8531;48.078;11.968;2023-05-07T05:36:19;12.90;99.90
16829;DHT22;8531;48.078;11.968;2023-05-07T05:38:44;13.00;99.90
16829;DHT22;8531;48.078;11.968;2023-05-07T05:41:10;13.00;99.90
16829;DHT22;8531;48.078;11.968;2023-05-07T05:43:36;13.00;99.90
16829;DHT22;8531;48.078;11.968;2023-05-07T05:46:01;13.10;99.90
16829;DHT22;8531;48.078;11.968;2023-05-07T05:48:28;13.30;99.90
16829;DHT22;8531;48.078;11.968;2023-05-07T05:50:54;13.40;99.90
16829;DHT22;8531;48.078;11.968;2023-05-07T05:53:20;13.50;99.90
16829;DHT22;8531;48.078;11.968;2023-05-07T05:55:46;13.60;99.90
16829;DHT22;8531;48.078;11.968;2023-05-07T05:58:11;13.60;99.90
16829;DHT22;8531;48.078;11.968;2023-05-07T06:00:37;13.70;99.90
16829;DHT22;8531;48.078;11.968;2023-05-07T06:03:03;13.80;99.90
16829;DHT22;8531;48.078;11.968;2023-05-07T06:05:29;13.80;99.90
16829;DHT22;8531;48.078;11.968;2023-05-07T06:07:55;13.80;99.90
16829;DHT22;8531;48.078;11.968;2023-05-07T06:10:21;13.90;99.90
16829;DHT22;8531;48.078;11.968;2023-05-07T06:12:47;13.90;99.90
16829;DHT22;8531;48.078;11.968;2023-05-07T06:15:12;14.10;99.90
16829;DHT22;8531;48.078;11.968;2023-05-07T06:17:38;14.20;99.90
16829;DHT22;8531;48.078;11.968;2023-05-07T06:20:04;14.20;99.90
16829;DHT22;8531;48.078;11.968;2023-05-07T06:22:30;14.20;99.90
16829;DHT22;8531;48.078;11.968;2023-05-07T06:24:55;14.30;99.90
16829;DHT22;8531;48.078;11.968;2023-05-07T06:27:21;14.40;99.90
16829;DHT22;8531;48.078;11.968;2023-05-07T06:29:48;14.40;99.90
16829;DHT22;8531;48.078;11.968;2023-05-07T06:32:13;14.60;99.90
16829;DHT22;8531;48.078;11.968;2023-05-07T06:34:40;14.60;99.90
16829;DHT22;8531;48.078;11.968;2023-05-07T06:37:06;14.70;99.90
16829;DHT22;8531;48.078;11.968;2023-05-07T06:39:32;14.90;99.90
16829;DHT22;8531;48.078;11.968;2023-05-07T06:42:00;15.00;99.90
16829;DHT22;8531;48.078;11.968;2023-05-07T06:44:25;15.10;99.90
16829;DHT22;8531;48.078;11.968;2023-05-07T06:46:51;15.20;99.90
16829;DHT22;8531;48.078;11.968;2023-05-07T06:49:16;15.20;99.90
16829;DHT22;8531;48.078;11.968;2023-05-07T06:51:42;15.40;99.90
16829;DHT22;8531;48.078;11.968;2023-05-07T06:54:08;15.60;99.90
16829;DHT22;8531;48.078;11.968;2023-05-07T06:56:34;15.50;99.90
16829;DHT22;8531;48.078;11.968;2023-05-07T06:59:00;15.70;99.90
16829;DHT22;8531;48.078;11.968;2023-05-07T07:01:26;16.00;99.90
16829;DHT22;8531;48.078;11.968;2023-05-07T07:03:51;16.20;99.90
16829;DHT22;8531;48.078;11.968;2023-05-07T07:06:17;16.30;99.90
16829;DHT22;8531;48.078;11.968;2023-05-07T07:08:43;16.40;99.90
16829;DHT22;8531;48.078;11.968;2023-05-07T07:11:10;16.50;99.90
16829;DHT22;8531;48.078;11.968;2023-05-07T07:13:35;16.60;99.90
16829;DHT22;8531;48.078;11.968;2023-05-07T07:16:01;16.70;99.90
16829;DHT22;8531;48.078;11.968;2023-05-07T07:18:27;17.10;99.90
16829;DHT22;8531;48.078;11.968;2023-05-07T07:20:53;17.40;99.90
16829;DHT22;8531;48.078;11.968;2023-05-07T07:23:18;17.80;99.90
16829;DHT22;8531;48.078;11.968;2023-05-07T07:25:44;17.90;99.90
16829;DHT22;8531;48.078;11.968;2023-05-07T07:28:10;18.00;99.90
16829;DHT22;8531;48.078;11.968;2023-05-07T07:30:36;17.90;99.90
16829;DHT22;8531;48.078;11.968;2023-05-07T07:33:02;18.10;99.90
16829;DHT22;8531;48.078;11.968;2023-05-07T07:35:29;18.10;99.90
16829;DHT22;8531;48.078;11.968;2023-05-07T07:37:55;17.90;99.90
16829;DHT22;8531;48.078;11.968;2023-05-07T07:40:21;18.10;99.90
16829;DHT22;8531;48.078;11.968;2023-05-07T07:42:46;18.50;99.90
16829;DHT22;8531;48.078;11.968;2023-05-07T07:45:12;18.80;99.90
16829;DHT22;8531;48.078;11.968;2023-05-07T07:47:39;18.70;99.90
16829;DHT22;8531;48.078;11.968;2023-05-07T07:50:06;18.50;99.90
16829;DHT22;8531;48.078;11.968;2023-05-07T07:52:31;18.70;99.90
16829;DHT22;8531;48.078;11.968;2023-05-07T07:54:57;18.50;99.90
16829;DHT22;8531;48.078;11.968;2023-05-07T07:57:23;18.70;99.90
16829;DHT22;8531;48.078;11.968;2023-05-07T07:59:49;19.00;99.90
16829;DHT22;8531;48.078;11.968;2023-05-07T08:02:15;19.20;99.90
16829;DHT22;8531;48.078;11.968;2023-05-07T08:04:41;19.10;99.90
16829;DHT22;8531;48.078;11.968;2023-05-07T08:07:09;19.20;99.90
16829;DHT22;8531;48.078;11.968;2023-05-07T08:09:35;19.30;99.90
16829;DHT22;8531;48.078;11.968;2023-05-07T08:12:01;19.40;99.90
16829;DHT22;8531;48.078;11.968;2023-05-07T08:14:27;19.70;99.90
16829;DHT22;8531;48.078;11.968;2023-05-07T08:16:54;19.60;99.90
16829;DHT22;8531;48.078;11.968;2023-05-07T08:19:20;19.70;99.90
16829;DHT22;8531;48.078;11.968;2023-05-07T08:21:46;19.70;99.90
16829;DHT22;8531;48.078;11.968;2023-05-07T08:24:13;20.10;99.90
16829;DHT22;8531;48.078;11.968;2023-05-07T08:26:39;20.10;99.90
16829;DHT22;8531;48.078;11.968;2023-05-07T08:29:05;20.30;99.90
16829;DHT22;8531;48.078;11.968;2023-05-07T08:31:31;20.50;99.90
16829;DHT22;8531;48.078;11.968;2023-05-07T08:33:57;20.50;99.90
16829;DHT22;8531;48.078;11.968;2023-05-07T08:36:24;20.40;99.90
16829;DHT22;8531;48.078;11.968;2023-05-07T08:38:51;20.60;99.90
16829;DHT22;8531;48.078;11.968;2023-05-07T08:41:16;20.60;99.90
16829;DHT22;8531;48.078;11.968;2023-05-07T08:43:46;21.00;99.90
16829;DHT22;8531;48.078;11.968;2023-05-07T08:46:18;21.10;99.90
16829;DHT22;8531;48.078;11.968;2023-05-07T08:48:44;21.30;99.90
16829;DHT22;8531;48.078;11.968;2023-05-07T08:51:15;20.90;99.90
16829;DHT22;8531;48.078;11.968;2023-05-07T08:53:41;20.90;99.90
16829;DHT22;8531;48.078;11.968;2023-05-07T08:56:09;21.20;99.90
16829;DHT22;8531;48.078;11.968;2023-05-07T08:58:35;21.20;99.90
16829;DHT22;8531;48.078;11.968;2023-05-07T09:01:08;21.10;99.90
16829;DHT22;8531;48.078;11.968;2023-05-07T09:03:35;21.60;99.90
16829;DHT22;8531;48.078;11.968;2023-05-07T09:06:01;21.30;99.90
16829;DHT22;8531;48.078;11.968;2023-05-07T09:08:28;21.60;99.90
16829;DHT22;8531;48.078;11.968;2023-05-07T09:10:54;21.50;99.90
16829;DHT22;8531;48.078;11.968;2023-05-07T09:13:20;21.50;99.90
16829;DHT22;8531;48.078;11.968;2023-05-07T09:15:46;21.80;99.90
16829;DHT22;8531;48.078;11.968;2023-05-07T09:18:14;21.60;99.90
16829;DHT22;8531;48.078;11.968;2023-05-07T09:20:41;21.80;99.90
16829;DHT22;8531;48.078;11.968;2023-05-07T09:23:08;22.30;99.90
16829;DHT22;8531;48.078;11.968;2023-05-07T09:25:34;22.30;99.90
16829;DHT22;8531;48.078;11.968;2023-05-07T09:28:01;22.70;99.90
16829;DHT22;8531;48.078;11.968;2023-05-07T09:30:31;22.80;99.90
16829;DHT22;8531;48.078;11.968;2023-05-07T09:32:59;22.90;99.90
16829;DHT22;8531;48.078;11.968;2023-05-07T09:35:26;22.90;99.90
16829;DHT22;8531;48.078;11.968;2023-05-07T09:37:59;22.90;99.90
16829;DHT22;8531;48.078;11.968;2023-05-07T09:40:29;23.10;99.90
16829;DHT22;8531;48.078;11.968;2023-05-07T09:42:56;23.40;99.90
16829;DHT22;8531;48.078;11.968;2023-05-07T09:45:26;23.60;99.90
16829;DHT22;8531;48.078;11.968;2023-05-07T09:47:55;23.30;99.90
16829;DHT22;8531;48.078;11.968;2023-05-07T09:50:28;23.00;99.90
16829;DHT22;8531;48.078;11.968;2023-05-07T09:52:55;23.40;99.90
16829;DHT22;8531;48.078;11.968;2023-05-07T09:55:21;23.10;99.90
16829;DHT22;8531;48.078;11.968;2023-05-07T09:57:52;23.10;99.90
16829;DHT22;8531;48.078;11.968;2023-05-07T10:00:22;23.50;99.90
16829;DHT22;8531;48.078;11.968;2023-05-07T10:02:49;23.80;99.90
16829;DHT22;8531;48.078;11.968;2023-05-07T10:05:20;23.80;99.90
16829;DHT22;8531;48.078;11.968;2023-05-07T10:07:47;24.00;99.90
16829;DHT22;8531;48.078;11.968;2023-05-07T10:10:14;23.80;99.90
16829;DHT22;8531;48.078;11.968;2023-05-07T10:12:41;23.80;99.90
16829;DHT22;8531;48.078;11.968;2023-05-07T10:15:11;23.80;99.90
16829;DHT22;8531;48.078;11.968;2023-05-07T10:17:38;23.80;99.90
16829;DHT22;8531;48.078;11.968;2023-05-07T10:20:05;24.00;99.90
16829;DHT22;8531;48.078;11.968;2023-05-07T10:22:45;23.80;99.90
16829;DHT22;8531;48.078;11.968;2023-05-07T10:25:18;24.00;99.90
16829;DHT22;8531;48.078;11.968;2023-05-07T10:27:44;24.00;99.90
16829;DHT22;8531;48.078;11.968;2023-05-07T10:30:40;23.90;99.90
16829;DHT22;8531;48.078;11.968;2023-05-07T10:33:10;24.00;99.90
16829;DHT22;8531;48.078;11.968;2023-05-07T10:35:42;23.80;99.90
16829;DHT22;8531;48.078;11.968;2023-05-07T10:38:08;23.90;99.90
16829;DHT22;8531;48.078;11.968;2023-05-07T10:40:34;24.30;99.90
16829;DHT22;8531;48.078;11.968;2023-05-07T10:43:02;24.20;99.90
16829;DHT22;8531;48.078;11.968;2023-05-07T10:45:30;23.80;99.90
16829;DHT22;8531;48.078;11.968;2023-05-07T10:50:34;24.00;99.90
16829;DHT22;8531;48.078;11.968;2023-05-07T10:55:47;23.90;99.90
16829;DHT22;8531;48.078;11.968;2023-05-07T10:58:26;24.00;99.90
16829;DHT22;8531;48.078;11.968;2023-05-07T11:01:02;24.00;99.90
16829;DHT22;8531;48.078;11.968;2023-05-07T11:03:28;23.90;99.90
16829;DHT22;8531;48.078;11.968;2023-05-07T11:06:13;23.60;99.90
16829;DHT22;8531;48.078;11.968;2023-05-07T11:08:55;23.60;99.90
16829;DHT22;8531;48.078;11.968;2023-05-07T11:11:49;23.60;99.90
16829;DHT22;8531;48.078;11.968;2023-05-07T11:14:43;23.60;99.90
16829;DHT22;8531;48.078;11.968;2023-05-07T11:17:09;23.40;99.90
16829;DHT22;8531;48.078;11.968;2023-05-07T11:19:51;23.70;99.90
16829;DHT22;8531;48.078;11.968;2023-05-07T11:25:05;23.60;99.90
16829;DHT22;8531;48.078;11.968;2023-05-07T11:27:32;23.50;99.90
16829;DHT22;8531;48.078;11.968;2023-05-07T11:29:58;23.80;99.90
16829;DHT22;8531;48.078;11.968;2023-05-07T11:32:24;23.40;99.90
16829;DHT22;8531;48.078;11.968;2023-05-07T11:34:59;23.60;99.90
16829;DHT22;8531;48.078;11.968;2023-05-07T11:37:26;23.60;99.90
16829;DHT22;8531;48.078;11.968;2023-05-07T11:40:07;23.60;99.90
16829;DHT22;8531;48.078;11.968;2023-05-07T11:42:38;23.70;99.90
16829;DHT22;8531;48.078;11.968;2023-05-07T11:45:05;24.20;99.90
16829;DHT22;8531;48.078;11.968;2023-05-07T11:47:34;24.00;99.90
16829;DHT22;8531;48.078;11.968;2023-05-07T11:50:07;23.80;99.90
16829;DHT22;8531;48.078;11.968;2023-05-07T11:52:34;23.80;99.90
16829;DHT22;8531;48.078;11.968;2023-05-07T11:55:00;24.20;99.90
16829;DHT22;8531;48.078;11.968;2023-05-07T11:57:27;23.80;99.90
16829;DHT22;8531;48.078;11.968;2023-05-07T11:59:56;23.90;99.90
16829;DHT22;8531;48.078;11.968;2023-05-07T12:02:23;24.00;99.90
16829;DHT22;8531;48.078;11.968;2023-05-07T12:04:50;23.60;99.90
16829;DHT22;8531;48.078;11.968;2023-05-07T12:07:17;23.40;99.90
16829;DHT22;8531;48.078;11.968;2023-05-07T12:09:44;23.50;99.90
16829;DHT22;8531;48.078;11.968;2023-05-07T12:12:10;23.40;99.90
16829;DHT22;8531;48.078;11.968;2023-05-07T12:14:43;24.10;99.90
16829;DHT22;8531;48.078;11.968;2023-05-07T12:17:10;24.20;99.90
16829;DHT22;8531;48.078;11.968;2023-05-07T12:19:37;24.50;99.90
16829;DHT22;8531;48.078;11.968;2023-05-07T12:22:04;24.70;99.90
16829;DHT22;8531;48.078;11.968;2023-05-07T12:24:45;24.40;99.90
16829;DHT22;8531;48.078;11.968;2023-05-07T12:27:11;24.60;99.90
16829;DHT22;8531;48.078;11.968;2023-05-07T12:29:36;24.70;99.90
16829;DHT22;8531;48.078;11.968;2023-05-07T12:32:06;25.00;99.90
16829;DHT22;8531;48.078;11.968;2023-05-07T12:34:31;25.20;99.90
16829;DHT22;8531;48.078;11.968;2023-05-07T12:36:57;25.20;99.90
16829;DHT22;8531;48.078;11.968;2023-05-07T12:39:27;25.10;99.90
16829;DHT22;8531;48.078;11.968;2023-05-07T12:41:58;24.90;99.90
16829;DHT22;8531;48.078;11.968;2023-05-07T12:44:26;24.60;99.90
16829;DHT22;8531;48.078;11.968;2023-05-07T12:46:54;24.90;99.90
16829;DHT22;8531;48.078;11.968;2023-05-07T12:49:19;25.00;99.90
16829;DHT22;8531;48.078;11.968;2023-05-07T12:51:47;24.90;99.90
16829;DHT22;8531;48.078;11.968;2023-05-07T12:54:14;24.80;99.90
16829;DHT22;8531;48.078;11.968;2023-05-07T12:56:40;24.30;99.90
16829;DHT22;8531;48.078;11.968;2023-05-07T12:59:05;24.30;99.90
16829;DHT22;8531;48.078;11.968;2023-05-07T13:01:31;24.10;99.90
16829;DHT22;8531;48.078;11.968;2023-05-07T13:04:03;24.50;99.90
16829;DHT22;8531;48.078;11.968;2023-05-07T13:06:29;25.00;99.90
16829;DHT22;8531;48.078;11.968;2023-05-07T13:08:55;24.20;99.90
16829;DHT22;8531;48.078;11.968;2023-05-07T13:11:21;24.20;99.90
16829;DHT22;8531;48.078;11.968;2023-05-07T13:13:46;24.50;99.90
16829;DHT22;8531;48.078;11.968;2023-05-07T13:16:12;24.40;99.90
16829;DHT22;8531;48.078;11.968;2023-05-07T13:18:39;24.00;99.90
16829;DHT22;8531;48.078;11.968;2023-05-07T13:21:05;24.50;99.90
16829;DHT22;8531;48.078;11.968;2023-05-07T13:23:31;24.10;99.90
16829;DHT22;8531;48.078;11.968;2023-05-07T13:25:56;23.90;99.90
16829;DHT22;8531;48.078;11.968;2023-05-07T13:28:23;24.00;99.90
16829;DHT22;8531;48.078;11.968;2023-05-07T13:30:49;24.20;99.90
16829;DHT22;8531;48.078;11.968;2023-05-07T13:33:17;24.10;99.90
16829;DHT22;8531;48.078;11.968;2023-05-07T13:35:42;24.10;99.90
16829;DHT22;8531;48.078;11.968;2023-05-07T13:38:08;24.20;99.90
16829;DHT22;8531;48.078;11.968;2023-05-07T13:40:34;24.50;99.90
16829;DHT22;8531;48.078;11.968;2023-05-07T13:43:00;24.10;99.90
16829;DHT22;8531;48.078;11.968;2023-05-07T13:45:28;23.60;99.90
16829;DHT22;8531;48.078;11.968;2023-05-07T13:47:55;23.60;99.90
16829;DHT22;8531;48.078;11.968;2023-05-07T13:50:21;23.70;99.90
16829;DHT22;8531;48.078;11.968;2023-05-07T13:52:47;24.00;99.90
16829;DHT22;8531;48.078;11.968;2023-05-07T13:55:22;23.90;99.90
16829;DHT22;8531;48.078;11.968;2023-05-07T13:57:57;23.90;99.90
16829;DHT22;8531;48.078;11.968;2023-05-07T14:00:24;23.80;99.90
16829;DHT22;8531;48.078;11.968;2023-05-07T14:02:50;24.10;99.90
16829;DHT22;8531;48.078;11.968;2023-05-07T14:05:15;23.90;99.90
16829;DHT22;8531;48.078;11.968;2023-05-07T14:07:41;23.40;99.90
16829;DHT22;8531;48.078;11.968;2023-05-07T14:10:07;23.70;99.90
16829;DHT22;8531;48.078;11.968;2023-05-07T14:12:33;23.70;99.90
16829;DHT22;8531;48.078;11.968;2023-05-07T14:14:59;23.60;99.90
16829;DHT22;8531;48.078;11.968;2023-05-07T14:17:25;23.70;99.90
16829;DHT22;8531;48.078;11.968;2023-05-07T14:19:52;23.40;99.90
16829;DHT22;8531;48.078;11.968;2023-05-07T14:22:22;23.30;99.90
16829;DHT22;8531;48.078;11.968;2023-05-07T14:24:48;23.30;99.90
16829;DHT22;8531;48.078;11.968;2023-05-07T14:27:14;23.10;99.90
16829;DHT22;8531;48.078;11.968;2023-05-07T14:29:40;23.40;99.90
16829;DHT22;8531;48.078;11.968;2023-05-07T14:32:06;23.10;99.90
16829;DHT22;8531;48.078;11.968;2023-05-07T14:34:32;22.70;99.90
16829;DHT22;8531;48.078;11.968;2023-05-07T14:36:59;22.70;99.90
16829;DHT22;8531;48.078;11.968;2023-05-07T14:39:25;22.80;99.90
16829;DHT22;8531;48.078;11.968;2023-05-07T14:41:51;22.50;99.90
16829;DHT22;8531;48.078;11.968;2023-05-07T14:44:17;22.60;99.90
16829;DHT22;8531;48.078;11.968;2023-05-07T14:46:42;22.60;99.90
16829;DHT22;8531;48.078;11.968;2023-05-07T14:49:08;22.40;99.90
16829;DHT22;8531;48.078;11.968;2023-05-07T14:51:42;22.30;99.90
16829;DHT22;8531;48.078;11.968;2023-05-07T14:54:07;22.30;99.90
16829;DHT22;8531;48.078;11.968;2023-05-07T14:56:34;22.20;99.90
16829;DHT22;8531;48.078;11.968;2023-05-07T14:59:02;22.30;99.90
16829;DHT22;8531;48.078;11.968;2023-05-07T15:01:28;22.20;99.90
16829;DHT22;8531;48.078;11.968;2023-05-07T15:03:54;22.10;99.90
16829;DHT22;8531;48.078;11.968;2023-05-07T15:06:20;22.10;99.90
16829;DHT22;8531;48.078;11.968;2023-05-07T15:08:46;22.20;99.90
16829;DHT22;8531;48.078;11.968;2023-05-07T15:11:12;22.20;99.90
16829;DHT22;8531;48.078;11.968;2023-05-07T15:13:37;22.20;99.90
16829;DHT22;8531;48.078;11.968;2023-05-07T15:16:03;22.10;99.90
16829;DHT22;8531;48.078;11.968;2023-05-07T15:18:29;22.10;99.90
16829;DHT22;8531;48.078;11.968;2023-05-07T15:20:55;22.20;99.90
16829;DHT22;8531;48.078;11.968;2023-05-07T15:23:22;22.10;99.90
16829;DHT22;8531;48.078;11.968;2023-05-07T15:25:47;22.10;99.90
16829;DHT22;8531;48.078;11.968;2023-05-07T15:28:13;22.00;99.90
16829;DHT22;8531;48.078;11.968;2023-05-07T15:30:39;21.90;99.90
16829;DHT22;8531;48.078;11.968;2023-05-07T15:33:04;21.90;99.90
16829;DHT22;8531;48.078;11.968;2023-05-07T15:35:31;21.80;99.90
16829;DHT22;8531;48.078;11.968;2023-05-07T15:37:56;21.70;99.90
16829;DHT22;8531;48.078;11.968;2023-05-07T15:40:22;21.70;99.90